createdAt,value
2023-03-03T00:00:42.422Z,1.20
2023-03-03T00:01:44.775Z,1.10
2023-03-03T00:02:47.046Z,1.10
2023-03-03T00:03:49.379Z,1.10
2023-03-03T00:04:52.036Z,1.10
2023-03-03T00:05:54.575Z,1.10
2023-03-03T00:06:56.923Z,1.10
2023-03-03T00:07:59.409Z,1.10
2023-03-03T00:09:01.640Z,1.10
2023-03-03T00:10:04.345Z,1.10
2023-03-03T00:11:07.949Z,1.10
2023-03-03T00:12:30.275Z,1.10
2023-03-03T00:13:33.737Z,1.10
2023-03-03T00:14:36.029Z,1.10
2023-03-03T00:15:39.172Z,1.10
2023-03-03T00:16:41.850Z,1.10
2023-03-03T00:17:44.233Z,1.10
2023-03-03T00:18:48.035Z,1.00
2023-03-03T00:19:51.432Z,1.00
2023-03-03T00:20:57.226Z,1.00
2023-03-03T00:21:59.464Z,1.00
2023-03-03T00:23:17.424Z,1.00
2023-03-03T00:24:37.825Z,1.00
2023-03-03T00:25:45.466Z,1.00
2023-03-03T00:26:56.483Z,0.90
2023-03-03T00:28:16.223Z,0.90
2023-03-03T00:29:30.911Z,0.90
2023-03-03T00:30:34.894Z,0.80
2023-03-03T00:31:37.751Z,0.90
2023-03-03T00:32:47.385Z,0.90
2023-03-03T00:33:57.099Z,0.90
2023-03-03T00:35:24.727Z,0.90
2023-03-03T00:36:55.009Z,0.90
2023-03-03T00:38:02.221Z,0.90
2023-03-03T00:39:26.831Z,0.90
2023-03-03T00:40:35.975Z,0.90
2023-03-03T00:41:39.976Z,0.90
2023-03-03T00:42:46.193Z,0.90
2023-03-03T00:43:48.577Z,0.90
2023-03-03T00:44:58.728Z,0.90
2023-03-03T00:46:01.004Z,0.90
2023-03-03T00:47:27.232Z,0.80
2023-03-03T00:48:42.025Z,0.80
2023-03-03T00:49:44.574Z,0.80
2023-03-03T00:50:47.035Z,0.80
2023-03-03T00:51:49.401Z,0.80
2023-03-03T00:53:02.484Z,0.80
2023-03-03T00:54:05.417Z,0.80
2023-03-03T00:55:08.697Z,0.80
2023-03-03T00:56:10.961Z,0.90
2023-03-03T00:57:13.553Z,0.80
2023-03-03T00:58:18.649Z,0.90
2023-03-03T00:59:22.765Z,0.90
2023-03-03T01:00:25.201Z,0.90
2023-03-03T01:01:27.717Z,0.90
2023-03-03T01:02:31.176Z,0.90
2023-03-03T01:03:33.476Z,0.80
2023-03-03T01:04:35.900Z,0.90
2023-03-03T01:05:38.442Z,0.90
2023-03-03T01:06:40.726Z,0.90
2023-03-03T01:07:43.492Z,0.90
2023-03-03T01:08:45.729Z,0.90
2023-03-03T01:09:48.096Z,0.90
2023-03-03T01:10:53.910Z,0.90
2023-03-03T01:11:56.896Z,0.90
2023-03-03T01:12:59.424Z,1.00
2023-03-03T01:14:01.743Z,1.10
2023-03-03T01:15:08.068Z,1.10
2023-03-03T01:16:10.950Z,1.10
2023-03-03T01:17:13.201Z,1.10
2023-03-03T01:18:15.887Z,1.10
2023-03-03T01:19:18.403Z,1.10
2023-03-03T01:20:20.748Z,1.10
2023-03-03T01:21:23.082Z,1.20
2023-03-03T01:22:25.358Z,1.10
2023-03-03T01:23:28.006Z,1.10
2023-03-03T01:24:30.293Z,1.10
2023-03-03T01:25:32.997Z,1.10
2023-03-03T01:26:35.441Z,1.10
2023-03-03T01:27:37.713Z,1.10
2023-03-03T01:28:39.989Z,1.10
2023-03-03T01:29:42.361Z,1.00
2023-03-03T01:30:44.687Z,1.00
2023-03-03T01:31:48.348Z,1.00
2023-03-03T01:32:50.840Z,1.00
2023-03-03T01:33:53.093Z,1.00
2023-03-03T01:34:55.379Z,1.00
2023-03-03T01:35:58.100Z,1.00
2023-03-03T01:37:01.184Z,1.00
2023-03-03T01:38:03.548Z,1.00
2023-03-03T01:39:05.822Z,1.00
2023-03-03T01:40:24.282Z,1.10
2023-03-03T01:41:30.281Z,1.10
2023-03-03T01:42:32.578Z,1.00
2023-03-03T01:43:35.323Z,1.00
2023-03-03T01:44:38.144Z,1.00
2023-03-03T01:46:03.144Z,1.00
2023-03-03T01:47:10.263Z,1.00
2023-03-03T01:48:22.274Z,1.00
2023-03-03T01:49:34.862Z,1.00
2023-03-03T01:50:48.782Z,1.00
2023-03-03T01:51:56.524Z,1.00
2023-03-03T01:53:01.487Z,1.00
2023-03-03T01:54:10.775Z,0.90
2023-03-03T01:55:23.223Z,0.90
2023-03-03T01:56:26.938Z,1.00
2023-03-03T01:57:34.107Z,0.90
2023-03-03T01:58:44.708Z,0.90
2023-03-03T01:59:51.205Z,0.90
2023-03-03T02:00:59.526Z,0.90
2023-03-03T02:02:01.908Z,0.90
2023-03-03T02:03:05.199Z,0.90
2023-03-03T02:04:08.432Z,0.90
2023-03-03T02:05:11.452Z,0.90
2023-03-03T02:06:20.119Z,0.90
2023-03-03T02:07:25.770Z,0.90
2023-03-03T02:08:39.325Z,0.90
2023-03-03T02:09:48.118Z,0.90
2023-03-03T02:10:52.953Z,0.80
2023-03-03T02:11:59.706Z,0.80
2023-03-03T02:13:01.982Z,0.80
2023-03-03T02:14:04.247Z,0.80
2023-03-03T02:15:18.829Z,0.80
2023-03-03T02:16:21.349Z,0.80
2023-03-03T02:17:23.745Z,0.80
2023-03-03T02:18:27.260Z,0.90
2023-03-03T02:19:41.382Z,0.90
2023-03-03T02:21:10.379Z,0.90
2023-03-03T02:22:17.512Z,0.90
2023-03-03T02:23:43.682Z,0.90
2023-03-03T02:24:57.098Z,0.90
2023-03-03T02:26:03.786Z,0.90
2023-03-03T02:27:06.271Z,0.90
2023-03-03T02:28:08.832Z,0.90
2023-03-03T02:29:11.666Z,0.90
2023-03-03T02:30:22.696Z,0.90
2023-03-03T02:31:28.419Z,0.90
2023-03-03T02:32:30.791Z,0.90
2023-03-03T02:33:33.118Z,0.80
2023-03-03T02:34:49.830Z,0.80
2023-03-03T02:35:52.811Z,0.80
2023-03-03T02:36:55.762Z,0.80
2023-03-03T02:38:21.512Z,0.70
2023-03-03T02:39:26.739Z,0.70
2023-03-03T02:40:34.638Z,0.60
2023-03-03T02:41:58.949Z,0.60
2023-03-03T02:43:08.429Z,0.50
2023-03-03T02:44:16.162Z,0.50
2023-03-03T02:45:19.571Z,0.50
2023-03-03T02:46:21.838Z,0.50
2023-03-03T02:47:24.142Z,0.50
2023-03-03T02:48:26.506Z,0.50
2023-03-03T02:49:33.894Z,0.50
2023-03-03T02:50:36.157Z,0.50
2023-03-03T02:51:39.173Z,0.50
2023-03-03T02:52:41.411Z,0.50
2023-03-03T02:53:44.558Z,0.50
2023-03-03T02:54:46.968Z,0.50
2023-03-03T02:55:49.282Z,0.50
2023-03-03T02:56:51.863Z,0.50
2023-03-03T02:57:54.131Z,0.60
2023-03-03T02:58:56.523Z,0.60
2023-03-03T02:59:58.882Z,0.60
2023-03-03T03:01:01.840Z,0.60
2023-03-03T03:02:04.313Z,0.60
2023-03-03T03:03:06.616Z,0.60
2023-03-03T03:04:12.039Z,0.60
2023-03-03T03:05:17.966Z,0.60
2023-03-03T03:06:20.604Z,0.60
2023-03-03T03:07:23.173Z,0.60
2023-03-03T03:08:25.530Z,0.60
2023-03-03T03:09:28.744Z,0.60
2023-03-03T03:10:31.430Z,0.70
2023-03-03T03:11:35.320Z,0.60
2023-03-03T03:12:37.606Z,0.60
2023-03-03T03:13:39.970Z,0.60
2023-03-03T03:14:42.416Z,0.70
2023-03-03T03:15:47.346Z,0.70
2023-03-03T03:16:49.745Z,0.70
2023-03-03T03:17:52.367Z,0.70
2023-03-03T03:18:56.019Z,0.70
2023-03-03T03:19:58.352Z,0.70
2023-03-03T03:21:08.682Z,0.70
2023-03-03T03:22:11.159Z,0.80
2023-03-03T03:23:14.061Z,0.70
2023-03-03T03:24:16.312Z,0.70
2023-03-03T03:25:23.352Z,0.70
2023-03-03T03:26:26.434Z,0.80
2023-03-03T03:27:28.784Z,0.80
2023-03-03T03:28:31.617Z,0.80
2023-03-03T03:29:34.237Z,0.80
2023-03-03T03:30:40.442Z,0.80
2023-03-03T03:31:43.890Z,0.80
2023-03-03T03:32:46.743Z,0.80
2023-03-03T03:33:49.525Z,0.90
2023-03-03T03:34:52.493Z,0.80
2023-03-03T03:35:55.902Z,0.80
2023-03-03T03:36:58.342Z,0.90
2023-03-03T03:38:02.993Z,0.90
2023-03-03T03:39:06.792Z,0.90
2023-03-03T03:40:12.238Z,0.90
2023-03-03T03:41:14.658Z,0.90
2023-03-03T03:42:17.075Z,0.90
2023-03-03T03:43:19.457Z,0.90
2023-03-03T03:44:23.978Z,0.90
2023-03-03T03:45:26.244Z,0.90
2023-03-03T03:46:28.963Z,1.00
2023-03-03T03:47:31.387Z,1.00
2023-03-03T03:48:34.154Z,0.90
2023-03-03T03:49:38.159Z,1.00
2023-03-03T03:50:40.678Z,0.90
2023-03-03T03:51:43.278Z,0.90
2023-03-03T03:52:50.424Z,0.90
2023-03-03T03:53:52.716Z,0.90
2023-03-03T03:54:55.024Z,0.90
2023-03-03T03:55:57.376Z,0.90
2023-03-03T03:56:59.636Z,0.90
2023-03-03T03:58:02.940Z,0.90
2023-03-03T03:59:07.149Z,0.90
2023-03-03T04:00:11.309Z,0.90
2023-03-03T04:01:16.059Z,0.80
2023-03-03T04:02:22.601Z,0.80
2023-03-03T04:03:27.295Z,0.80
2023-03-03T04:04:30.003Z,0.80
2023-03-03T04:05:32.342Z,0.80
2023-03-03T04:06:34.723Z,0.80
2023-03-03T04:07:37.558Z,0.80
2023-03-03T04:08:39.834Z,0.80
2023-03-03T04:09:44.025Z,0.80
2023-03-03T04:10:46.277Z,0.70
2023-03-03T04:11:48.650Z,0.70
2023-03-03T04:12:51.167Z,0.70
2023-03-03T04:13:53.470Z,0.70
2023-03-03T04:14:56.036Z,0.70
2023-03-03T04:15:58.451Z,0.70
2023-03-03T04:17:00.865Z,0.70
2023-03-03T04:18:03.736Z,0.70
2023-03-03T04:19:06.371Z,0.70
2023-03-03T04:20:13.676Z,0.70
2023-03-03T04:21:16.606Z,0.70
2023-03-03T04:22:20.762Z,0.70
2023-03-03T04:23:23.125Z,0.70
2023-03-03T04:24:25.381Z,0.70
2023-03-03T04:25:28.101Z,0.70
2023-03-03T04:26:31.637Z,0.70
2023-03-03T04:27:36.636Z,0.70
2023-03-03T04:28:39.844Z,0.70
2023-03-03T04:29:43.022Z,0.80
2023-03-03T04:30:46.022Z,0.70
2023-03-03T04:31:51.307Z,0.80
2023-03-03T04:32:54.216Z,0.80
2023-03-03T04:33:59.341Z,0.80
2023-03-03T04:35:08.085Z,0.80
2023-03-03T04:36:12.790Z,0.80
2023-03-03T04:37:15.511Z,0.80
2023-03-03T04:38:17.894Z,0.80
2023-03-03T04:39:21.060Z,0.80
2023-03-03T04:40:23.586Z,0.80
2023-03-03T04:41:27.022Z,0.80
2023-03-03T04:42:30.152Z,0.80
2023-03-03T04:43:32.436Z,0.80
2023-03-03T04:44:35.848Z,0.80
2023-03-03T04:45:39.870Z,0.90
2023-03-03T04:46:42.909Z,0.90
2023-03-03T04:47:45.517Z,0.90
2023-03-03T04:48:48.228Z,0.90
2023-03-03T04:49:51.464Z,0.90
2023-03-03T04:50:54.539Z,0.90
2023-03-03T04:51:57.385Z,1.00
2023-03-03T04:53:00.069Z,1.00
2023-03-03T04:54:02.465Z,1.00
2023-03-03T04:55:05.453Z,1.00
2023-03-03T04:56:07.920Z,1.00
2023-03-03T04:57:10.845Z,1.00
2023-03-03T04:58:13.061Z,1.00
2023-03-03T04:59:15.779Z,1.00
2023-03-03T05:00:18.659Z,1.00
2023-03-03T05:01:21.045Z,1.00
2023-03-03T05:02:23.327Z,1.00
2023-03-03T05:03:27.141Z,1.00
2023-03-03T05:04:29.444Z,1.00
2023-03-03T05:05:31.770Z,1.00
2023-03-03T05:06:34.303Z,1.00
2023-03-03T05:07:36.640Z,1.00
2023-03-03T05:08:39.026Z,1.00
2023-03-03T05:09:41.300Z,1.00
2023-03-03T05:10:44.633Z,0.90
2023-03-03T05:11:47.046Z,0.90
2023-03-03T05:12:49.308Z,0.90
2023-03-03T05:13:51.647Z,0.90
2023-03-03T05:14:53.891Z,0.90
2023-03-03T05:15:56.915Z,0.90
2023-03-03T05:16:59.216Z,0.90
2023-03-03T05:18:01.586Z,0.90
2023-03-03T05:19:03.837Z,0.90
2023-03-03T05:20:08.560Z,0.90
2023-03-03T05:21:11.107Z,0.90
2023-03-03T05:22:13.434Z,0.90
2023-03-03T05:23:15.723Z,0.90
2023-03-03T05:24:18.255Z,0.90
2023-03-03T05:25:21.547Z,0.90
2023-03-03T05:26:23.818Z,0.90
2023-03-03T05:27:26.145Z,0.90
2023-03-03T05:28:28.747Z,0.80
2023-03-03T05:29:31.639Z,0.90
2023-03-03T05:30:35.798Z,0.90
2023-03-03T05:31:38.078Z,0.90
2023-03-03T05:32:40.480Z,0.90
2023-03-03T05:33:42.776Z,0.90
2023-03-03T05:34:45.020Z,0.90
2023-03-03T05:35:47.311Z,0.90
2023-03-03T05:36:49.724Z,0.90
2023-03-03T05:37:52.857Z,1.00
2023-03-03T05:38:55.192Z,0.90
2023-03-03T05:39:57.594Z,1.00
2023-03-03T05:40:59.864Z,1.00
2023-03-03T05:42:03.136Z,1.00
2023-03-03T05:43:05.546Z,1.00
2023-03-03T05:44:08.182Z,1.00
2023-03-03T05:45:11.143Z,1.00
2023-03-03T05:46:13.532Z,1.00
2023-03-03T05:47:15.908Z,1.00
2023-03-03T05:48:18.143Z,1.00
2023-03-03T05:49:20.589Z,1.00
2023-03-03T05:50:23.795Z,1.10
2023-03-03T05:51:26.231Z,1.10
2023-03-03T05:52:28.715Z,1.10
2023-03-03T05:53:31.009Z,1.00
2023-03-03T05:54:33.251Z,1.00
2023-03-03T05:55:35.472Z,1.00
2023-03-03T05:56:37.881Z,1.10
2023-03-03T05:57:40.258Z,1.00
2023-03-03T05:58:42.507Z,1.00
2023-03-03T05:59:45.042Z,1.00
2023-03-03T06:00:47.622Z,1.00
2023-03-03T06:01:49.954Z,1.10
2023-03-03T06:02:52.442Z,1.00
2023-03-03T06:03:54.793Z,1.10
2023-03-03T06:04:57.061Z,1.10
2023-03-03T06:05:59.354Z,1.10
2023-03-03T06:07:01.599Z,1.10
2023-03-03T06:08:04.037Z,1.10
2023-03-03T06:09:06.379Z,1.10
2023-03-03T06:10:09.666Z,1.10
2023-03-03T06:11:16.754Z,1.10
2023-03-03T06:12:19.483Z,1.10
2023-03-03T06:13:21.915Z,1.10
2023-03-03T06:14:26.724Z,1.10
2023-03-03T06:15:29.481Z,1.00
2023-03-03T06:16:31.878Z,1.00
2023-03-03T06:17:35.020Z,1.00
2023-03-03T06:18:37.602Z,1.00
2023-03-03T06:19:41.488Z,1.00
2023-03-03T06:20:43.876Z,0.90
2023-03-03T06:21:46.230Z,0.90
2023-03-03T06:22:48.452Z,0.90
2023-03-03T06:23:50.830Z,0.90
2023-03-03T06:24:53.061Z,0.90
2023-03-03T06:25:55.300Z,0.90
2023-03-03T06:26:58.629Z,1.00
2023-03-03T06:28:00.996Z,1.00
2023-03-03T06:29:03.914Z,1.00
2023-03-03T06:30:06.867Z,1.00
2023-03-03T06:31:09.156Z,1.00
2023-03-03T06:32:12.067Z,1.00
2023-03-03T06:33:14.401Z,1.00
2023-03-03T06:34:16.709Z,1.00
2023-03-03T06:35:19.203Z,1.00
2023-03-03T06:36:21.855Z,1.00
2023-03-03T06:37:24.137Z,1.00
2023-03-03T06:38:26.438Z,0.90
2023-03-03T06:39:28.825Z,0.90
2023-03-03T06:40:31.152Z,0.90
2023-03-03T06:41:33.802Z,0.90
2023-03-03T06:42:36.068Z,1.00
2023-03-03T06:43:38.843Z,1.00
2023-03-03T06:44:41.170Z,1.00
2023-03-03T06:45:45.791Z,1.00
2023-03-03T06:46:48.082Z,1.00
2023-03-03T06:47:50.339Z,1.00
2023-03-03T06:48:53.029Z,1.00
2023-03-03T06:49:55.534Z,1.00
2023-03-03T06:51:03.565Z,1.00
2023-03-03T06:52:24.055Z,0.90
2023-03-03T06:53:27.395Z,1.00
2023-03-03T06:54:31.070Z,0.90
2023-03-03T06:55:33.987Z,0.90
2023-03-03T06:56:37.976Z,0.90
2023-03-03T06:57:41.233Z,1.00
2023-03-03T06:58:43.504Z,0.90
2023-03-03T06:59:49.146Z,1.00
2023-03-03T07:00:59.724Z,0.90
2023-03-03T07:02:02.349Z,0.90
2023-03-03T07:03:21.680Z,0.90
2023-03-03T07:04:33.784Z,0.90
2023-03-03T07:05:38.464Z,0.90
2023-03-03T07:06:40.695Z,0.90
2023-03-03T07:07:43.524Z,0.90
2023-03-03T07:08:45.832Z,0.90
2023-03-03T07:09:50.573Z,0.90
2023-03-03T07:10:53.346Z,1.00
2023-03-03T07:12:01.862Z,1.00
2023-03-03T07:13:25.955Z,1.00
2023-03-03T07:14:29.545Z,1.00
2023-03-03T07:15:35.927Z,1.00
2023-03-03T07:16:38.348Z,1.10
2023-03-03T07:17:50.491Z,1.10
2023-03-03T07:18:58.725Z,1.10
2023-03-03T07:20:02.135Z,1.10
2023-03-03T07:21:16.822Z,1.20
2023-03-03T07:22:24.394Z,1.10
2023-03-03T07:23:42.633Z,1.10
2023-03-03T07:24:48.456Z,1.10
2023-03-03T07:25:52.136Z,1.10
2023-03-03T07:27:11.052Z,1.10
2023-03-03T07:28:28.406Z,1.10
2023-03-03T07:29:30.809Z,1.20
2023-03-03T07:30:33.545Z,1.20
2023-03-03T07:31:36.814Z,1.20
2023-03-03T07:32:45.910Z,1.20
2023-03-03T07:33:48.271Z,1.30
2023-03-03T07:34:53.936Z,1.30
2023-03-03T07:35:58.566Z,1.30
2023-03-03T07:37:12.163Z,1.40
2023-03-03T07:38:20.731Z,1.40
2023-03-03T07:39:40.360Z,1.40
2023-03-03T07:40:51.376Z,1.50
2023-03-03T07:42:14.072Z,1.60
2023-03-03T07:43:28.503Z,1.60
2023-03-03T07:44:38.079Z,1.60
2023-03-03T07:45:40.794Z,1.60
2023-03-03T07:46:48.104Z,1.70
2023-03-03T07:47:50.393Z,1.70
2023-03-03T07:48:53.237Z,1.70
2023-03-03T07:50:00.186Z,1.70
2023-03-03T07:51:26.968Z,1.70
2023-03-03T07:52:29.278Z,1.70
2023-03-03T07:53:35.549Z,1.70
2023-03-03T07:54:40.489Z,1.70
2023-03-03T07:55:43.121Z,1.70
2023-03-03T07:56:45.699Z,1.70
2023-03-03T07:57:50.494Z,1.70
2023-03-03T07:58:53.990Z,1.70
2023-03-03T08:00:05.382Z,1.60
2023-03-03T08:01:39.874Z,1.70
2023-03-03T08:02:45.228Z,1.70
2023-03-03T08:03:51.078Z,1.70
2023-03-03T08:04:54.904Z,1.70
2023-03-03T08:05:57.719Z,1.80
2023-03-03T08:07:02.245Z,1.80
2023-03-03T08:08:33.151Z,1.80
2023-03-03T08:09:38.190Z,1.90
2023-03-03T08:10:49.170Z,1.90
2023-03-03T08:11:55.522Z,1.90
2023-03-03T08:13:01.105Z,1.90
2023-03-03T08:14:11.129Z,1.90
2023-03-03T08:15:16.456Z,2.00
2023-03-03T08:16:30.415Z,2.00
2023-03-03T08:17:39.100Z,2.00
2023-03-03T08:18:49.402Z,2.10
2023-03-03T08:19:54.625Z,2.10
2023-03-03T08:21:02.336Z,2.10
2023-03-03T08:22:16.537Z,2.20
2023-03-03T08:23:20.451Z,2.20
2023-03-03T08:24:22.687Z,2.20
2023-03-03T08:25:24.945Z,2.20
2023-03-03T08:26:27.561Z,2.20
2023-03-03T08:27:30.377Z,2.20
2023-03-03T08:28:32.712Z,2.20
2023-03-03T08:29:35.689Z,2.20
2023-03-03T08:30:38.559Z,2.20
2023-03-03T08:31:42.205Z,2.20
2023-03-03T08:32:44.903Z,2.30
2023-03-03T08:33:47.595Z,2.30
2023-03-03T08:34:49.848Z,2.30
2023-03-03T08:35:52.189Z,2.30
2023-03-03T08:36:56.881Z,2.30
2023-03-03T08:37:59.412Z,2.30
2023-03-03T08:39:02.608Z,2.30
2023-03-03T08:40:05.734Z,2.30
2023-03-03T08:41:08.613Z,2.20
2023-03-03T08:42:10.938Z,2.20
2023-03-03T08:43:18.362Z,2.10
2023-03-03T08:44:20.749Z,2.10
2023-03-03T08:45:23.102Z,2.10
2023-03-03T08:46:25.449Z,2.10
2023-03-03T08:47:27.862Z,2.20
2023-03-03T08:48:30.260Z,2.20
2023-03-03T08:49:32.494Z,2.20
2023-03-03T08:50:34.828Z,2.20
2023-03-03T08:51:37.229Z,2.20
2023-03-03T08:52:39.646Z,2.30
2023-03-03T08:53:41.876Z,2.30
2023-03-03T08:54:44.139Z,2.30
2023-03-03T08:55:47.732Z,2.30
2023-03-03T08:56:50.552Z,2.40
2023-03-03T08:57:52.796Z,2.40
2023-03-03T08:59:03.191Z,2.40
2023-03-03T09:00:09.125Z,2.40
2023-03-03T09:01:11.429Z,2.40
2023-03-03T09:02:14.008Z,2.50
2023-03-03T09:03:16.345Z,2.50
2023-03-03T09:04:18.634Z,2.60
2023-03-03T09:05:22.260Z,2.60
2023-03-03T09:06:24.660Z,2.70
2023-03-03T09:07:27.109Z,2.70
2023-03-03T09:08:29.499Z,2.70
2023-03-03T09:09:31.727Z,2.80
2023-03-03T09:10:35.590Z,2.80
2023-03-03T09:11:37.956Z,2.80
2023-03-03T09:12:49.084Z,2.80
2023-03-03T09:13:53.415Z,2.80
2023-03-03T09:15:00.007Z,2.80
2023-03-03T09:16:09.576Z,2.80
2023-03-03T09:17:32.732Z,2.90
2023-03-03T09:18:39.617Z,2.80
2023-03-03T09:19:41.906Z,2.80
2023-03-03T09:20:49.440Z,2.80
2023-03-03T09:21:54.858Z,2.80
2023-03-03T09:22:59.330Z,2.80
2023-03-03T09:24:01.754Z,2.80
2023-03-03T09:25:21.662Z,2.80
2023-03-03T09:26:43.522Z,2.80
2023-03-03T09:27:45.841Z,2.80
2023-03-03T09:28:48.359Z,2.80
2023-03-03T09:29:50.604Z,2.80
2023-03-03T09:30:54.842Z,2.80
2023-03-03T09:32:07.785Z,2.80
2023-03-03T09:33:37.042Z,2.90
2023-03-03T09:34:43.232Z,2.90
2023-03-03T09:35:46.146Z,2.90
2023-03-03T09:36:52.474Z,2.90
2023-03-03T09:37:54.768Z,2.90
2023-03-03T09:38:58.143Z,3.00
2023-03-03T09:40:00.489Z,3.00
2023-03-03T09:41:30.895Z,3.00
2023-03-03T09:42:57.025Z,3.00
2023-03-03T09:44:17.339Z,3.10
2023-03-03T09:45:33.882Z,3.00
2023-03-03T09:47:03.128Z,3.10
2023-03-03T09:48:40.317Z,3.10
2023-03-03T09:50:03.112Z,3.20
2023-03-03T09:51:23.508Z,3.20
2023-03-03T09:52:44.403Z,3.30
2023-03-03T09:53:52.530Z,3.30
2023-03-03T09:55:25.554Z,3.20
2023-03-03T09:57:05.664Z,3.20
2023-03-03T09:58:45.828Z,3.20
2023-03-03T10:00:03.386Z,3.30
2023-03-03T10:01:34.965Z,3.30
2023-03-03T10:03:03.116Z,3.40
2023-03-03T10:04:14.053Z,3.40
2023-03-03T10:05:19.278Z,3.50
2023-03-03T10:06:24.329Z,3.50
2023-03-03T10:07:35.892Z,3.60
2023-03-03T10:09:20.169Z,3.60
2023-03-03T10:10:53.591Z,3.60
2023-03-03T10:12:01.284Z,3.70
2023-03-03T10:13:22.114Z,3.70
2023-03-03T10:14:43.517Z,3.80
2023-03-03T10:15:51.385Z,3.90
2023-03-03T10:17:09.059Z,3.90
2023-03-03T10:18:46.252Z,4.00
2023-03-03T10:20:17.618Z,4.10
2023-03-03T10:21:37.052Z,4.20
2023-03-03T10:22:59.938Z,4.20
2023-03-03T10:24:28.920Z,4.20
2023-03-03T10:25:39.156Z,4.30
2023-03-03T10:27:12.075Z,4.40
2023-03-03T10:29:05.455Z,4.40
2023-03-03T10:30:39.829Z,4.50
2023-03-03T10:31:53.677Z,4.60
2023-03-03T10:33:00.812Z,4.60
2023-03-03T10:34:27.238Z,4.60
2023-03-03T10:36:07.510Z,4.70
2023-03-03T10:37:15.598Z,4.70
2023-03-03T10:38:36.943Z,4.80
2023-03-03T10:40:05.893Z,4.80
2023-03-03T10:41:17.162Z,4.90
2023-03-03T10:42:40.601Z,4.90
2023-03-03T10:44:00.131Z,5.00
2023-03-03T10:45:27.954Z,5.00
2023-03-03T10:46:46.310Z,5.00
2023-03-03T10:47:53.878Z,4.90
2023-03-03T10:49:21.313Z,5.00
2023-03-03T10:50:31.310Z,4.90
2023-03-03T10:51:57.885Z,4.90
2023-03-03T10:53:21.026Z,5.00
2023-03-03T10:55:07.731Z,5.10
2023-03-03T10:56:52.760Z,5.10
2023-03-03T10:58:04.302Z,5.20
2023-03-03T10:59:36.637Z,5.30
2023-03-03T11:01:07.175Z,5.30
2023-03-03T11:02:18.209Z,5.20
2023-03-03T11:03:33.856Z,5.20
2023-03-03T11:05:10.269Z,5.20
2023-03-03T11:06:24.676Z,5.30
2023-03-03T11:07:34.263Z,5.30
2023-03-03T11:08:55.092Z,5.30
2023-03-03T11:10:27.383Z,5.30
2023-03-03T11:11:59.880Z,5.40
2023-03-03T11:13:13.607Z,5.40
2023-03-03T11:14:32.510Z,5.50
2023-03-03T11:16:16.466Z,5.50
2023-03-03T11:17:48.210Z,5.60
2023-03-03T11:19:02.523Z,5.70
2023-03-03T11:20:31.331Z,5.80
2023-03-03T11:22:15.015Z,5.80
2023-03-03T11:23:54.522Z,5.80
2023-03-03T11:25:05.281Z,5.70
2023-03-03T11:26:41.548Z,5.70
2023-03-03T11:28:02.619Z,5.70
2023-03-03T11:29:23.099Z,5.60
2023-03-03T11:30:42.734Z,5.60
2023-03-03T11:32:02.207Z,5.50
2023-03-03T11:33:13.944Z,5.50
2023-03-03T11:34:47.194Z,5.50
2023-03-03T11:36:08.335Z,5.50
2023-03-03T11:37:14.129Z,5.50
2023-03-03T11:38:40.153Z,5.60
2023-03-03T11:39:44.203Z,5.60
2023-03-03T11:41:01.687Z,5.60
2023-03-03T11:42:28.605Z,5.60
2023-03-03T11:43:43.053Z,5.70
2023-03-03T11:44:50.038Z,5.70
2023-03-03T11:46:00.654Z,5.60
2023-03-03T11:47:24.774Z,5.70
2023-03-03T11:48:43.059Z,5.60
2023-03-03T11:50:08.605Z,5.70
2023-03-03T11:51:35.078Z,5.70
2023-03-03T11:53:03.702Z,5.70
2023-03-03T11:54:24.760Z,5.80
2023-03-03T11:55:39.461Z,5.80
2023-03-03T11:56:44.169Z,5.90
2023-03-03T11:57:54.797Z,6.00
2023-03-03T11:59:13.793Z,6.00
2023-03-03T12:00:21.955Z,6.00
2023-03-03T12:01:39.328Z,6.00
2023-03-03T12:03:10.920Z,6.00
2023-03-03T12:04:18.963Z,6.00
2023-03-03T12:05:48.870Z,6.00
2023-03-03T12:07:19.063Z,5.90
2023-03-03T12:08:32.942Z,5.80
2023-03-03T12:10:08.308Z,5.90
2023-03-03T12:11:13.714Z,5.80
2023-03-03T12:12:26.502Z,5.90
2023-03-03T12:13:37.888Z,5.90
2023-03-03T12:15:09.295Z,5.90
2023-03-03T12:16:22.566Z,5.90
2023-03-03T12:17:47.523Z,5.90
2023-03-03T12:19:16.960Z,5.80
2023-03-03T12:20:34.388Z,5.70
2023-03-03T12:22:10.716Z,5.70
2023-03-03T12:23:52.850Z,5.70
2023-03-03T12:25:16.252Z,5.70
2023-03-03T12:26:18.522Z,5.70
2023-03-03T12:27:41.178Z,5.80
2023-03-03T12:28:55.139Z,5.80
2023-03-03T12:30:27.611Z,5.90
2023-03-03T12:31:42.189Z,5.90
2023-03-03T12:32:47.484Z,5.90
2023-03-03T12:33:59.384Z,5.90
2023-03-03T12:35:10.862Z,6.00
2023-03-03T12:36:47.562Z,6.00
2023-03-03T12:37:59.787Z,6.10
2023-03-03T12:39:33.917Z,6.20
2023-03-03T12:40:46.158Z,6.20
2023-03-03T12:42:07.697Z,6.30
2023-03-03T12:43:25.866Z,6.30
2023-03-03T12:44:37.883Z,6.30
2023-03-03T12:45:59.136Z,6.20
2023-03-03T12:47:22.277Z,6.20
2023-03-03T12:48:41.959Z,6.10
2023-03-03T12:50:07.454Z,6.00
2023-03-03T12:51:17.971Z,5.90
2023-03-03T12:52:45.157Z,5.80
2023-03-03T12:53:53.959Z,5.80
2023-03-03T12:55:28.718Z,5.70
2023-03-03T12:56:52.834Z,5.80
2023-03-03T12:58:08.634Z,5.80
2023-03-03T12:59:25.105Z,5.90
2023-03-03T13:00:48.913Z,5.90
2023-03-03T13:02:08.703Z,6.00
2023-03-03T13:03:53.254Z,6.10
2023-03-03T13:05:29.325Z,6.20
2023-03-03T13:06:37.671Z,6.40
2023-03-03T13:08:08.044Z,6.40
2023-03-03T13:09:53.927Z,6.50
2023-03-03T13:11:25.424Z,6.60
2023-03-03T13:12:27.645Z,6.70
2023-03-03T13:13:53.638Z,6.70
2023-03-03T13:15:16.348Z,6.70
2023-03-03T13:16:42.072Z,6.70
2023-03-03T13:18:15.696Z,6.70
2023-03-03T13:20:01.079Z,6.70
2023-03-03T13:21:11.453Z,6.80
2023-03-03T13:22:36.898Z,6.80
2023-03-03T13:23:53.535Z,6.80
2023-03-03T13:25:09.362Z,6.80
2023-03-03T13:26:31.737Z,6.80
2023-03-03T13:27:45.514Z,6.80
2023-03-03T13:29:14.035Z,6.80
2023-03-03T13:30:24.727Z,6.80
2023-03-03T13:31:41.443Z,6.70
2023-03-03T13:32:51.645Z,6.70
2023-03-03T13:33:59.069Z,6.70
2023-03-03T13:35:09.788Z,6.70
2023-03-03T13:36:14.986Z,6.60
2023-03-03T13:37:29.776Z,6.60
2023-03-03T13:38:36.655Z,6.60
2023-03-03T13:39:59.897Z,6.60
2023-03-03T13:41:25.709Z,6.60
2023-03-03T13:42:58.623Z,6.60
2023-03-03T13:44:19.254Z,6.60
2023-03-03T13:45:41.732Z,6.70
2023-03-03T13:47:23.362Z,6.70
2023-03-03T13:48:43.366Z,6.70
2023-03-03T13:50:10.757Z,6.70
2023-03-03T13:51:33.708Z,6.70
2023-03-03T13:52:53.641Z,6.50
2023-03-03T13:54:23.742Z,6.40
2023-03-03T13:55:33.865Z,6.40
2023-03-03T13:56:48.316Z,6.30
2023-03-03T13:57:56.358Z,6.40
2023-03-03T13:59:11.247Z,6.40
2023-03-03T14:00:26.648Z,6.50
2023-03-03T14:02:25.915Z,6.50
2023-03-03T14:04:05.360Z,6.60
2023-03-03T14:05:26.472Z,6.60
2023-03-03T14:06:30.018Z,6.60
2023-03-03T14:07:42.467Z,6.60
2023-03-03T14:09:03.350Z,6.60
2023-03-03T14:10:10.778Z,6.60
2023-03-03T14:11:43.749Z,6.60
2023-03-03T14:13:05.045Z,6.60
2023-03-03T14:14:38.473Z,6.50
2023-03-03T14:16:01.051Z,6.50
2023-03-03T14:17:32.077Z,6.60
2023-03-03T14:18:41.628Z,6.60
2023-03-03T14:19:46.715Z,6.60
2023-03-03T14:20:52.667Z,6.70
2023-03-03T14:22:14.561Z,6.70
2023-03-03T14:23:39.511Z,6.70
2023-03-03T14:25:12.249Z,6.80
2023-03-03T14:26:15.638Z,6.80
2023-03-03T14:27:27.869Z,6.80
2023-03-03T14:28:44.202Z,6.80
2023-03-03T14:29:47.270Z,6.80
2023-03-03T14:30:49.939Z,6.80
2023-03-03T14:31:53.572Z,6.80
2023-03-03T14:33:03.322Z,6.80
2023-03-03T14:34:11.437Z,6.90
2023-03-03T14:35:21.220Z,6.90
2023-03-03T14:36:31.119Z,6.90
2023-03-03T14:37:45.457Z,6.90
2023-03-03T14:38:48.981Z,7.00
2023-03-03T14:40:02.919Z,7.00
2023-03-03T14:41:11.129Z,7.00
2023-03-03T14:42:29.959Z,7.00
2023-03-03T14:44:21.388Z,7.10
2023-03-03T14:45:39.461Z,7.10
2023-03-03T14:46:41.889Z,7.10
2023-03-03T14:47:46.352Z,7.10
2023-03-03T14:48:57.049Z,7.20
2023-03-03T14:50:03.607Z,7.20
2023-03-03T14:51:36.505Z,7.10
2023-03-03T14:52:39.268Z,7.10
2023-03-03T14:53:47.986Z,7.10
2023-03-03T14:54:53.347Z,7.00
2023-03-03T14:56:13.822Z,7.00
2023-03-03T14:57:31.318Z,7.00
2023-03-03T14:58:42.041Z,6.90
2023-03-03T15:00:07.844Z,6.90
2023-03-03T15:01:34.255Z,6.90
2023-03-03T15:02:37.824Z,6.80
2023-03-03T15:03:47.982Z,6.70
2023-03-03T15:04:50.350Z,6.70
2023-03-03T15:05:56.321Z,6.70
2023-03-03T15:06:59.286Z,6.60
2023-03-03T15:08:04.175Z,6.60
2023-03-03T15:09:26.950Z,6.60
2023-03-03T15:10:30.737Z,6.60
2023-03-03T15:11:34.189Z,6.50
2023-03-03T15:12:40.669Z,6.50
2023-03-03T15:13:43.009Z,6.50
2023-03-03T15:14:47.930Z,6.50
2023-03-03T15:16:02.508Z,6.50
2023-03-03T15:17:25.226Z,6.50
2023-03-03T15:18:28.906Z,6.40
2023-03-03T15:19:44.556Z,6.40
2023-03-03T15:21:22.233Z,6.40
2023-03-03T15:22:36.417Z,6.30
2023-03-03T15:23:49.245Z,6.30
2023-03-03T15:25:03.414Z,6.20
2023-03-03T15:26:38.189Z,6.20
2023-03-03T15:28:06.181Z,6.20
2023-03-03T15:29:21.998Z,6.20
2023-03-03T15:30:41.177Z,6.20
2023-03-03T15:31:52.366Z,6.20